W29 weather

Bay Bridge Airport
Stevensville, Maryland, United States

Public forecast

Using degrees Fahrenheit for public forecast. Weather courtesy of forecast.io.

METAR (pilot weather report)

Closest report is Easton Newnam Field, 16.0 nm (29.6 km) SE. Retrieved 2019/06/17 17:50 UTC (28 minutes ago):

KESN 171750Z 30004KT 10SM FEW060 SCT250 32/19 A3002

TAF (pilot weather forecast)

Closest forecast is Baltimore/Washington International Thurgood Marshall Airport, 19.8 nm (36.7 km) NW. Retrieved 2019/06/17 18:45 UTC (0 seconds ago):

TAF KBWI 171741Z 1718/1824 24006KT P6SM VCTS BKN050CB TEMPO 1720/1723 4SM -TSRA BR BKN025CB FM180200 VRB03KT P6SM BKN050 FM181300 23006KT P6SM BKN100